sensor_id;sensor_type;location;lat;lon;timestamp;temperature;humidity
15546;DHT22;7874;48.870;11.074;2023-07-24T00:01:18;19.10;97.80
15546;DHT22;7874;48.870;11.074;2023-07-24T00:03:45;19.10;98.00
15546;DHT22;7874;48.870;11.074;2023-07-24T00:06:15;19.10;98.40
15546;DHT22;7874;48.870;11.074;2023-07-24T00:08:41;19.10;98.50
15546;DHT22;7874;48.870;11.074;2023-07-24T00:11:10;19.20;98.10
15546;DHT22;7874;48.870;11.074;2023-07-24T00:13:36;19.30;98.10
15546;DHT22;7874;48.870;11.074;2023-07-24T00:16:06;19.40;97.90
15546;DHT22;7874;48.870;11.074;2023-07-24T00:18:33;19.30;97.80
15546;DHT22;7874;48.870;11.074;2023-07-24T00:21:00;19.20;98.20
15546;DHT22;7874;48.870;11.074;2023-07-24T00:23:27;19.30;98.20
15546;DHT22;7874;48.870;11.074;2023-07-24T00:25:54;19.30;98.40
15546;DHT22;7874;48.870;11.074;2023-07-24T00:28:23;19.30;98.40
15546;DHT22;7874;48.870;11.074;2023-07-24T00:30:49;19.30;98.40
15546;DHT22;7874;48.870;11.074;2023-07-24T00:33:16;19.20;98.40
15546;DHT22;7874;48.870;11.074;2023-07-24T00:35:43;19.20;98.80
15546;DHT22;7874;48.870;11.074;2023-07-24T00:38:10;19.20;98.40
15546;DHT22;7874;48.870;11.074;2023-07-24T00:40:36;19.20;98.80
15546;DHT22;7874;48.870;11.074;2023-07-24T00:43:06;19.20;98.70
15546;DHT22;7874;48.870;11.074;2023-07-24T00:45:35;19.10;98.80
15546;DHT22;7874;48.870;11.074;2023-07-24T00:48:05;19.20;98.80
15546;DHT22;7874;48.870;11.074;2023-07-24T00:50:31;19.10;98.90
15546;DHT22;7874;48.870;11.074;2023-07-24T00:52:58;19.10;99.10
15546;DHT22;7874;48.870;11.074;2023-07-24T00:55:25;19.00;99.20
15546;DHT22;7874;48.870;11.074;2023-07-24T00:57:54;18.70;99.20
15546;DHT22;7874;48.870;11.074;2023-07-24T01:00:21;18.80;98.50
15546;DHT22;7874;48.870;11.074;2023-07-24T01:02:49;18.80;98.40
15546;DHT22;7874;48.870;11.074;2023-07-24T01:05:17;18.90;98.10
15546;DHT22;7874;48.870;11.074;2023-07-24T01:07:44;19.00;97.80
15546;DHT22;7874;48.870;11.074;2023-07-24T01:10:11;19.00;97.20
15546;DHT22;7874;48.870;11.074;2023-07-24T01:12:43;18.90;98.30
15546;DHT22;7874;48.870;11.074;2023-07-24T01:15:16;19.00;98.40
15546;DHT22;7874;48.870;11.074;2023-07-24T01:17:50;19.10;97.90
15546;DHT22;7874;48.870;11.074;2023-07-24T01:20:18;19.10;98.20
15546;DHT22;7874;48.870;11.074;2023-07-24T01:22:57;19.10;98.10
15546;DHT22;7874;48.870;11.074;2023-07-24T01:25:32;19.20;98.30
15546;DHT22;7874;48.870;11.074;2023-07-24T01:28:06;19.20;98.00
15546;DHT22;7874;48.870;11.074;2023-07-24T01:30:33;19.20;97.90
15546;DHT22;7874;48.870;11.074;2023-07-24T01:33:00;19.10;98.30
15546;DHT22;7874;48.870;11.074;2023-07-24T01:35:27;19.10;98.70
15546;DHT22;7874;48.870;11.074;2023-07-24T01:37:56;19.10;98.70
15546;DHT22;7874;48.870;11.074;2023-07-24T01:40:26;19.10;99.00
15546;DHT22;7874;48.870;11.074;2023-07-24T01:42:53;19.00;99.50
15546;DHT22;7874;48.870;11.074;2023-07-24T01:45:21;18.90;99.20
15546;DHT22;7874;48.870;11.074;2023-07-24T01:47:48;18.90;99.40
15546;DHT22;7874;48.870;11.074;2023-07-24T01:50:15;18.80;99.50
15546;DHT22;7874;48.870;11.074;2023-07-24T01:52:44;18.70;99.60
15546;DHT22;7874;48.870;11.074;2023-07-24T01:55:11;18.70;99.90
15546;DHT22;7874;48.870;11.074;2023-07-24T01:57:37;18.70;99.90
15546;DHT22;7874;48.870;11.074;2023-07-24T02:00:05;18.70;99.90
15546;DHT22;7874;48.870;11.074;2023-07-24T02:02:34;18.70;99.80
15546;DHT22;7874;48.870;11.074;2023-07-24T02:05:00;18.80;99.70
15546;DHT22;7874;48.870;11.074;2023-07-24T02:08:06;18.70;99.70
15546;DHT22;7874;48.870;11.074;2023-07-24T02:10:36;18.50;99.90
15546;DHT22;7874;48.870;11.074;2023-07-24T02:13:03;18.50;99.90
15546;DHT22;7874;48.870;11.074;2023-07-24T02:15:32;18.50;99.90
15546;DHT22;7874;48.870;11.074;2023-07-24T02:17:59;18.50;99.90
15546;DHT22;7874;48.870;11.074;2023-07-24T02:20:26;18.50;99.90
15546;DHT22;7874;48.870;11.074;2023-07-24T02:22:53;18.40;99.90
15546;DHT22;7874;48.870;11.074;2023-07-24T02:25:21;18.30;99.90
15546;DHT22;7874;48.870;11.074;2023-07-24T02:27:48;18.40;99.90
15546;DHT22;7874;48.870;11.074;2023-07-24T02:30:14;18.40;99.90
15546;DHT22;7874;48.870;11.074;2023-07-24T02:32:41;18.40;99.90
15546;DHT22;7874;48.870;11.074;2023-07-24T02:35:08;18.40;99.90
15546;DHT22;7874;48.870;11.074;2023-07-24T02:37:35;18.20;99.90
15546;DHT22;7874;48.870;11.074;2023-07-24T02:40:02;18.30;99.90
15546;DHT22;7874;48.870;11.074;2023-07-24T02:42:30;18.30;99.90
15546;DHT22;7874;48.870;11.074;2023-07-24T02:44:57;18.30;99.90
15546;DHT22;7874;48.870;11.074;2023-07-24T02:47:24;18.30;99.90
15546;DHT22;7874;48.870;11.074;2023-07-24T02:49:51;18.30;99.90
15546;DHT22;7874;48.870;11.074;2023-07-24T02:52:18;18.20;99.90
15546;DHT22;7874;48.870;11.074;2023-07-24T02:54:45;18.30;99.90
15546;DHT22;7874;48.870;11.074;2023-07-24T02:57:11;18.30;99.90
15546;DHT22;7874;48.870;11.074;2023-07-24T02:59:40;18.40;99.90
15546;DHT22;7874;48.870;11.074;2023-07-24T03:02:06;18.40;99.90
15546;DHT22;7874;48.870;11.074;2023-07-24T03:04:33;18.40;99.90
15546;DHT22;7874;48.870;11.074;2023-07-24T03:07:00;18.30;99.90
15546;DHT22;7874;48.870;11.074;2023-07-24T03:09:27;18.40;99.90
15546;DHT22;7874;48.870;11.074;2023-07-24T03:11:53;18.40;99.90
15546;DHT22;7874;48.870;11.074;2023-07-24T03:14:20;18.50;99.90
15546;DHT22;7874;48.870;11.074;2023-07-24T03:16:48;18.40;99.90
15546;DHT22;7874;48.870;11.074;2023-07-24T03:19:15;18.50;99.90
15546;DHT22;7874;48.870;11.074;2023-07-24T03:21:43;18.30;99.90
15546;DHT22;7874;48.870;11.074;2023-07-24T03:24:09;18.20;99.90
15546;DHT22;7874;48.870;11.074;2023-07-24T03:26:36;18.00;99.90
15546;DHT22;7874;48.870;11.074;2023-07-24T03:29:05;17.90;99.90
15546;DHT22;7874;48.870;11.074;2023-07-24T03:31:32;18.00;99.90
15546;DHT22;7874;48.870;11.074;2023-07-24T03:34:00;18.10;99.90
15546;DHT22;7874;48.870;11.074;2023-07-24T03:36:29;18.10;99.90
15546;DHT22;7874;48.870;11.074;2023-07-24T03:38:56;17.90;99.90
15546;DHT22;7874;48.870;11.074;2023-07-24T03:41:23;17.90;99.90
15546;DHT22;7874;48.870;11.074;2023-07-24T03:43:53;17.90;99.90
15546;DHT22;7874;48.870;11.074;2023-07-24T03:46:20;17.90;99.90
15546;DHT22;7874;48.870;11.074;2023-07-24T03:48:47;17.90;99.90
15546;DHT22;7874;48.870;11.074;2023-07-24T03:51:17;18.10;99.90
15546;DHT22;7874;48.870;11.074;2023-07-24T03:53:44;18.10;99.90
15546;DHT22;7874;48.870;11.074;2023-07-24T03:56:10;18.00;99.90
15546;DHT22;7874;48.870;11.074;2023-07-24T03:58:39;18.00;99.90
15546;DHT22;7874;48.870;11.074;2023-07-24T04:01:06;18.00;99.90
15546;DHT22;7874;48.870;11.074;2023-07-24T04:03:32;18.00;99.90
15546;DHT22;7874;48.870;11.074;2023-07-24T04:06:02;18.00;99.90
15546;DHT22;7874;48.870;11.074;2023-07-24T04:08:30;18.00;99.90
15546;DHT22;7874;48.870;11.074;2023-07-24T04:10:57;18.00;99.90
15546;DHT22;7874;48.870;11.074;2023-07-24T04:13:24;18.00;99.90
15546;DHT22;7874;48.870;11.074;2023-07-24T04:15:51;18.00;99.90
15546;DHT22;7874;48.870;11.074;2023-07-24T04:18:17;18.00;99.90
15546;DHT22;7874;48.870;11.074;2023-07-24T04:20:44;18.00;99.90
15546;DHT22;7874;48.870;11.074;2023-07-24T04:23:11;18.00;99.90
15546;DHT22;7874;48.870;11.074;2023-07-24T04:25:39;18.00;99.90
15546;DHT22;7874;48.870;11.074;2023-07-24T04:28:06;18.00;99.90
15546;DHT22;7874;48.870;11.074;2023-07-24T04:30:33;18.00;99.90
15546;DHT22;7874;48.870;11.074;2023-07-24T04:32:59;18.00;99.90
15546;DHT22;7874;48.870;11.074;2023-07-24T04:35:32;18.00;99.90
15546;DHT22;7874;48.870;11.074;2023-07-24T04:37:59;18.10;99.90
15546;DHT22;7874;48.870;11.074;2023-07-24T04:40:26;18.10;99.90
15546;DHT22;7874;48.870;11.074;2023-07-24T04:42:54;18.10;99.90
15546;DHT22;7874;48.870;11.074;2023-07-24T04:45:20;18.00;99.90
15546;DHT22;7874;48.870;11.074;2023-07-24T04:47:47;18.10;99.90
15546;DHT22;7874;48.870;11.074;2023-07-24T04:50:17;18.20;99.90
15546;DHT22;7874;48.870;11.074;2023-07-24T04:52:44;18.10;99.90
15546;DHT22;7874;48.870;11.074;2023-07-24T04:57:05;18.20;99.90
15546;DHT22;7874;48.870;11.074;2023-07-24T04:59:33;18.10;99.90
15546;DHT22;7874;48.870;11.074;2023-07-24T05:01:59;18.10;99.90
15546;DHT22;7874;48.870;11.074;2023-07-24T05:04:26;18.10;99.90
15546;DHT22;7874;48.870;11.074;2023-07-24T05:06:53;18.10;99.90
15546;DHT22;7874;48.870;11.074;2023-07-24T05:09:19;18.20;99.90
15546;DHT22;7874;48.870;11.074;2023-07-24T05:11:46;18.50;99.90
15546;DHT22;7874;48.870;11.074;2023-07-24T05:14:14;18.80;99.90
15546;DHT22;7874;48.870;11.074;2023-07-24T05:16:41;19.10;99.90
15546;DHT22;7874;48.870;11.074;2023-07-24T05:19:08;19.20;99.90
15546;DHT22;7874;48.870;11.074;2023-07-24T05:21:35;19.40;99.90
15546;DHT22;7874;48.870;11.074;2023-07-24T05:24:04;19.50;99.90
15546;DHT22;7874;48.870;11.074;2023-07-24T05:26:31;19.70;99.90
15546;DHT22;7874;48.870;11.074;2023-07-24T05:28:58;19.70;99.90
15546;DHT22;7874;48.870;11.074;2023-07-24T05:31:26;19.60;99.90
15546;DHT22;7874;48.870;11.074;2023-07-24T05:33:55;19.70;99.90
15546;DHT22;7874;48.870;11.074;2023-07-24T05:36:22;19.70;99.90
15546;DHT22;7874;48.870;11.074;2023-07-24T05:38:49;19.70;99.90
15546;DHT22;7874;48.870;11.074;2023-07-24T05:41:17;19.70;99.90
15546;DHT22;7874;48.870;11.074;2023-07-24T05:43:44;19.60;99.90
15546;DHT22;7874;48.870;11.074;2023-07-24T05:46:11;19.50;99.90
15546;DHT22;7874;48.870;11.074;2023-07-24T05:48:39;19.50;99.90
15546;DHT22;7874;48.870;11.074;2023-07-24T05:51:06;19.60;99.90
15546;DHT22;7874;48.870;11.074;2023-07-24T05:53:32;19.60;99.90
15546;DHT22;7874;48.870;11.074;2023-07-24T05:56:00;19.60;99.90
15546;DHT22;7874;48.870;11.074;2023-07-24T05:58:27;19.80;99.90
15546;DHT22;7874;48.870;11.074;2023-07-24T06:00:54;20.30;99.90
15546;DHT22;7874;48.870;11.074;2023-07-24T06:03:21;20.90;99.90
15546;DHT22;7874;48.870;11.074;2023-07-24T06:05:52;21.10;99.90
15546;DHT22;7874;48.870;11.074;2023-07-24T06:08:19;21.40;99.90
15546;DHT22;7874;48.870;11.074;2023-07-24T06:10:47;21.30;99.90
15546;DHT22;7874;48.870;11.074;2023-07-24T06:13:14;21.10;99.90
15546;DHT22;7874;48.870;11.074;2023-07-24T06:15:41;20.90;99.90
15546;DHT22;7874;48.870;11.074;2023-07-24T06:18:08;20.70;99.90
15546;DHT22;7874;48.870;11.074;2023-07-24T06:20:35;20.90;99.90
15546;DHT22;7874;48.870;11.074;2023-07-24T06:23:03;21.10;99.90
15546;DHT22;7874;48.870;11.074;2023-07-24T06:25:30;21.40;99.90
15546;DHT22;7874;48.870;11.074;2023-07-24T06:27:57;21.80;99.90
15546;DHT22;7874;48.870;11.074;2023-07-24T06:30:24;22.30;99.90
15546;DHT22;7874;48.870;11.074;2023-07-24T06:32:51;22.00;99.90
15546;DHT22;7874;48.870;11.074;2023-07-24T06:35:18;21.90;99.90
15546;DHT22;7874;48.870;11.074;2023-07-24T06:37:44;21.80;99.90
15546;DHT22;7874;48.870;11.074;2023-07-24T06:40:13;21.60;99.90
15546;DHT22;7874;48.870;11.074;2023-07-24T06:42:40;21.50;99.90
15546;DHT22;7874;48.870;11.074;2023-07-24T06:45:07;21.40;99.90
15546;DHT22;7874;48.870;11.074;2023-07-24T06:47:36;21.40;99.90
15546;DHT22;7874;48.870;11.074;2023-07-24T06:50:03;21.70;99.90
15546;DHT22;7874;48.870;11.074;2023-07-24T06:52:30;21.70;99.90
15546;DHT22;7874;48.870;11.074;2023-07-24T06:54:57;21.60;99.90
15546;DHT22;7874;48.870;11.074;2023-07-24T06:57:25;21.50;99.90
15546;DHT22;7874;48.870;11.074;2023-07-24T06:59:52;21.50;99.90
15546;DHT22;7874;48.870;11.074;2023-07-24T07:02:19;21.50;99.90
15546;DHT22;7874;48.870;11.074;2023-07-24T07:04:45;21.50;99.90
15546;DHT22;7874;48.870;11.074;2023-07-24T07:07:12;21.50;99.90
15546;DHT22;7874;48.870;11.074;2023-07-24T07:09:39;21.40;99.90
15546;DHT22;7874;48.870;11.074;2023-07-24T07:12:07;21.50;99.90
15546;DHT22;7874;48.870;11.074;2023-07-24T07:14:35;21.40;99.90
15546;DHT22;7874;48.870;11.074;2023-07-24T07:17:02;21.30;99.90
15546;DHT22;7874;48.870;11.074;2023-07-24T07:19:29;21.20;99.90
15546;DHT22;7874;48.870;11.074;2023-07-24T07:21:55;21.00;99.90
15546;DHT22;7874;48.870;11.074;2023-07-24T07:24:22;20.80;99.90
15546;DHT22;7874;48.870;11.074;2023-07-24T07:26:49;20.80;99.90
15546;DHT22;7874;48.870;11.074;2023-07-24T07:29:16;20.70;99.90
15546;DHT22;7874;48.870;11.074;2023-07-24T07:31:44;20.60;99.90
15546;DHT22;7874;48.870;11.074;2023-07-24T07:34:11;20.60;99.90
15546;DHT22;7874;48.870;11.074;2023-07-24T07:36:37;20.60;99.90
15546;DHT22;7874;48.870;11.074;2023-07-24T07:39:04;20.50;99.90
15546;DHT22;7874;48.870;11.074;2023-07-24T07:41:31;20.50;99.90
15546;DHT22;7874;48.870;11.074;2023-07-24T07:45:37;20.50;99.90
15546;DHT22;7874;48.870;11.074;2023-07-24T07:48:05;20.70;99.90
15546;DHT22;7874;48.870;11.074;2023-07-24T07:50:32;20.70;99.90
15546;DHT22;7874;48.870;11.074;2023-07-24T07:52:58;20.70;99.90
15546;DHT22;7874;48.870;11.074;2023-07-24T07:55:25;20.70;99.90
15546;DHT22;7874;48.870;11.074;2023-07-24T07:57:52;20.70;99.90
15546;DHT22;7874;48.870;11.074;2023-07-24T08:00:19;20.90;99.90
15546;DHT22;7874;48.870;11.074;2023-07-24T08:02:47;20.90;99.90
15546;DHT22;7874;48.870;11.074;2023-07-24T08:05:14;21.00;99.90
15546;DHT22;7874;48.870;11.074;2023-07-24T08:07:41;21.10;99.90
15546;DHT22;7874;48.870;11.074;2023-07-24T08:10:08;21.30;99.90
15546;DHT22;7874;48.870;11.074;2023-07-24T08:12:35;21.40;99.90
15546;DHT22;7874;48.870;11.074;2023-07-24T08:15:02;21.60;99.90
15546;DHT22;7874;48.870;11.074;2023-07-24T08:17:29;21.80;99.90
15546;DHT22;7874;48.870;11.074;2023-07-24T08:19:58;21.90;99.90
15546;DHT22;7874;48.870;11.074;2023-07-24T08:22:25;21.90;99.90
15546;DHT22;7874;48.870;11.074;2023-07-24T08:24:52;21.80;99.90
15546;DHT22;7874;48.870;11.074;2023-07-24T08:27:19;21.70;99.90
15546;DHT22;7874;48.870;11.074;2023-07-24T08:29:46;21.60;99.90
15546;DHT22;7874;48.870;11.074;2023-07-24T08:32:12;21.50;99.90
15546;DHT22;7874;48.870;11.074;2023-07-24T08:34:39;21.50;99.90
15546;DHT22;7874;48.870;11.074;2023-07-24T08:37:07;21.60;99.90
15546;DHT22;7874;48.870;11.074;2023-07-24T08:39:34;21.60;99.90
15546;DHT22;7874;48.870;11.074;2023-07-24T08:42:08;21.60;99.90
15546;DHT22;7874;48.870;11.074;2023-07-24T08:44:36;21.60;99.90
15546;DHT22;7874;48.870;11.074;2023-07-24T08:47:03;21.60;99.90
15546;DHT22;7874;48.870;11.074;2023-07-24T08:49:32;21.70;99.90
15546;DHT22;7874;48.870;11.074;2023-07-24T08:52:00;21.80;99.90
15546;DHT22;7874;48.870;11.074;2023-07-24T08:54:29;21.90;99.90
15546;DHT22;7874;48.870;11.074;2023-07-24T08:56:56;22.10;99.90
15546;DHT22;7874;48.870;11.074;2023-07-24T08:59:23;22.20;99.90
15546;DHT22;7874;48.870;11.074;2023-07-24T09:01:50;22.20;99.90
15546;DHT22;7874;48.870;11.074;2023-07-24T09:04:17;22.40;99.90
15546;DHT22;7874;48.870;11.074;2023-07-24T09:06:45;22.50;99.90
15546;DHT22;7874;48.870;11.074;2023-07-24T09:09:13;23.00;99.90
15546;DHT22;7874;48.870;11.074;2023-07-24T09:11:49;23.40;99.90
15546;DHT22;7874;48.870;11.074;2023-07-24T09:14:23;24.30;99.90
15546;DHT22;7874;48.870;11.074;2023-07-24T09:17:01;26.30;99.90
15546;DHT22;7874;48.870;11.074;2023-07-24T09:19:28;27.30;98.50
15546;DHT22;7874;48.870;11.074;2023-07-24T09:21:55;28.20;97.30
15546;DHT22;7874;48.870;11.074;2023-07-24T09:24:22;29.00;96.30
15546;DHT22;7874;48.870;11.074;2023-07-24T09:26:52;29.60;94.50
15546;DHT22;7874;48.870;11.074;2023-07-24T09:29:19;29.50;93.40
15546;DHT22;7874;48.870;11.074;2023-07-24T09:31:46;29.90;92.70
15546;DHT22;7874;48.870;11.074;2023-07-24T09:34:16;30.30;93.20
15546;DHT22;7874;48.870;11.074;2023-07-24T09:36:44;30.90;92.10
15546;DHT22;7874;48.870;11.074;2023-07-24T09:39:11;31.00;91.00
15546;DHT22;7874;48.870;11.074;2023-07-24T09:41:38;31.00;91.20
15546;DHT22;7874;48.870;11.074;2023-07-24T09:44:06;31.10;91.00
15546;DHT22;7874;48.870;11.074;2023-07-24T09:46:33;31.20;89.00
15546;DHT22;7874;48.870;11.074;2023-07-24T09:49:00;31.30;89.40
15546;DHT22;7874;48.870;11.074;2023-07-24T09:51:29;31.60;88.10
15546;DHT22;7874;48.870;11.074;2023-07-24T09:54:00;31.70;88.60
15546;DHT22;7874;48.870;11.074;2023-07-24T09:56:31;31.60;88.00
15546;DHT22;7874;48.870;11.074;2023-07-24T09:58:59;31.60;86.80
15546;DHT22;7874;48.870;11.074;2023-07-24T10:01:28;31.40;87.90
15546;DHT22;7874;48.870;11.074;2023-07-24T10:03:56;31.90;87.30
15546;DHT22;7874;48.870;11.074;2023-07-24T10:06:24;32.00;86.10
15546;DHT22;7874;48.870;11.074;2023-07-24T10:08:52;31.00;87.30
15546;DHT22;7874;48.870;11.074;2023-07-24T10:11:20;30.40;88.60
15546;DHT22;7874;48.870;11.074;2023-07-24T10:13:49;30.20;87.80
15546;DHT22;7874;48.870;11.074;2023-07-24T10:16:16;29.90;90.00
15546;DHT22;7874;48.870;11.074;2023-07-24T10:18:46;30.40;90.00
15546;DHT22;7874;48.870;11.074;2023-07-24T10:21:13;31.60;87.70
15546;DHT22;7874;48.870;11.074;2023-07-24T10:23:42;32.00;86.50
15546;DHT22;7874;48.870;11.074;2023-07-24T10:26:09;32.10;85.40
15546;DHT22;7874;48.870;11.074;2023-07-24T10:28:37;30.80;87.10
15546;DHT22;7874;48.870;11.074;2023-07-24T10:31:05;29.80;89.20
15546;DHT22;7874;48.870;11.074;2023-07-24T10:34:35;29.10;90.20
15546;DHT22;7874;48.870;11.074;2023-07-24T10:37:02;28.50;90.90
15546;DHT22;7874;48.870;11.074;2023-07-24T10:39:37;27.90;91.20
15546;DHT22;7874;48.870;11.074;2023-07-24T10:42:06;27.20;91.70
15546;DHT22;7874;48.870;11.074;2023-07-24T10:44:33;27.00;92.60
15546;DHT22;7874;48.870;11.074;2023-07-24T10:47:00;26.50;94.10
15546;DHT22;7874;48.870;11.074;2023-07-24T10:49:30;26.10;95.30
15546;DHT22;7874;48.870;11.074;2023-07-24T10:51:57;25.60;95.60
15546;DHT22;7874;48.870;11.074;2023-07-24T10:54:24;24.80;98.00
15546;DHT22;7874;48.870;11.074;2023-07-24T10:56:57;23.90;99.80
15546;DHT22;7874;48.870;11.074;2023-07-24T10:59:35;23.50;99.90
15546;DHT22;7874;48.870;11.074;2023-07-24T11:02:03;23.60;99.90
15546;DHT22;7874;48.870;11.074;2023-07-24T11:04:32;23.70;99.90
15546;DHT22;7874;48.870;11.074;2023-07-24T11:07:00;23.80;99.90
15546;DHT22;7874;48.870;11.074;2023-07-24T11:09:34;24.10;99.90
15546;DHT22;7874;48.870;11.074;2023-07-24T11:12:09;24.60;99.90
15546;DHT22;7874;48.870;11.074;2023-07-24T11:14:46;24.90;99.80
15546;DHT22;7874;48.870;11.074;2023-07-24T11:17:13;25.00;99.40
15546;DHT22;7874;48.870;11.074;2023-07-24T11:19:41;24.90;99.80
15546;DHT22;7874;48.870;11.074;2023-07-24T11:22:08;24.80;99.90
15546;DHT22;7874;48.870;11.074;2023-07-24T11:24:42;24.60;99.70
15546;DHT22;7874;48.870;11.074;2023-07-24T11:27:12;24.50;99.70
15546;DHT22;7874;48.870;11.074;2023-07-24T11:29:39;24.30;99.90
15546;DHT22;7874;48.870;11.074;2023-07-24T11:32:06;24.20;99.90
15546;DHT22;7874;48.870;11.074;2023-07-24T11:34:33;24.20;99.90
15546;DHT22;7874;48.870;11.074;2023-07-24T11:37:02;24.10;99.90
15546;DHT22;7874;48.870;11.074;2023-07-24T11:39:29;23.90;99.90
15546;DHT22;7874;48.870;11.074;2023-07-24T11:41:57;23.80;99.90
15546;DHT22;7874;48.870;11.074;2023-07-24T11:44:26;23.70;99.90
15546;DHT22;7874;48.870;11.074;2023-07-24T11:47:00;23.70;99.90
15546;DHT22;7874;48.870;11.074;2023-07-24T11:49:28;23.60;99.90
15546;DHT22;7874;48.870;11.074;2023-07-24T11:51:59;23.40;99.90
15546;DHT22;7874;48.870;11.074;2023-07-24T11:54:28;23.30;99.90
15546;DHT22;7874;48.870;11.074;2023-07-24T11:56:55;23.20;99.90
15546;DHT22;7874;48.870;11.074;2023-07-24T11:59:21;23.00;99.90
15546;DHT22;7874;48.870;11.074;2023-07-24T12:01:48;23.00;99.90
15546;DHT22;7874;48.870;11.074;2023-07-24T12:04:15;22.80;99.90
15546;DHT22;7874;48.870;11.074;2023-07-24T12:06:42;22.60;99.90
15546;DHT22;7874;48.870;11.074;2023-07-24T12:09:11;22.20;99.90
15546;DHT22;7874;48.870;11.074;2023-07-24T12:11:43;21.90;99.90
15546;DHT22;7874;48.870;11.074;2023-07-24T12:14:12;21.80;99.90
15546;DHT22;7874;48.870;11.074;2023-07-24T12:16:39;21.60;99.90
15546;DHT22;7874;48.870;11.074;2023-07-24T12:19:06;21.30;99.90
15546;DHT22;7874;48.870;11.074;2023-07-24T12:21:32;20.90;99.90
15546;DHT22;7874;48.870;11.074;2023-07-24T12:23:59;20.40;99.90
15546;DHT22;7874;48.870;11.074;2023-07-24T12:26:26;20.10;99.90
15546;DHT22;7874;48.870;11.074;2023-07-24T12:28:54;20.00;99.90
15546;DHT22;7874;48.870;11.074;2023-07-24T12:31:21;20.20;99.90
15546;DHT22;7874;48.870;11.074;2023-07-24T12:33:48;20.20;99.90
15546;DHT22;7874;48.870;11.074;2023-07-24T12:36:15;20.20;99.90
15546;DHT22;7874;48.870;11.074;2023-07-24T12:38:42;20.10;99.90
15546;DHT22;7874;48.870;11.074;2023-07-24T12:41:09;20.00;99.90
15546;DHT22;7874;48.870;11.074;2023-07-24T12:43:35;20.00;99.90
15546;DHT22;7874;48.870;11.074;2023-07-24T12:46:03;19.90;99.90
15546;DHT22;7874;48.870;11.074;2023-07-24T12:48:30;20.10;99.90
15546;DHT22;7874;48.870;11.074;2023-07-24T12:50:57;20.60;99.90
15546;DHT22;7874;48.870;11.074;2023-07-24T12:53:25;21.20;99.90
15546;DHT22;7874;48.870;11.074;2023-07-24T12:55:52;21.50;99.90
15546;DHT22;7874;48.870;11.074;2023-07-24T12:58:19;21.60;99.90
15546;DHT22;7874;48.870;11.074;2023-07-24T13:00:45;21.80;99.90
15546;DHT22;7874;48.870;11.074;2023-07-24T13:03:14;21.80;99.90
15546;DHT22;7874;48.870;11.074;2023-07-24T13:05:41;21.90;99.90
15546;DHT22;7874;48.870;11.074;2023-07-24T13:08:08;22.00;99.90
15546;DHT22;7874;48.870;11.074;2023-07-24T13:10:35;22.30;99.90
15546;DHT22;7874;48.870;11.074;2023-07-24T13:13:02;22.50;99.90
15546;DHT22;7874;48.870;11.074;2023-07-24T13:15:28;23.00;99.90
15546;DHT22;7874;48.870;11.074;2023-07-24T13:17:57;23.50;99.90
15546;DHT22;7874;48.870;11.074;2023-07-24T13:20:26;24.10;99.90
15546;DHT22;7874;48.870;11.074;2023-07-24T13:23:12;24.50;99.90
15546;DHT22;7874;48.870;11.074;2023-07-24T13:25:42;24.90;99.90
15546;DHT22;7874;48.870;11.074;2023-07-24T13:28:12;25.40;99.90
15546;DHT22;7874;48.870;11.074;2023-07-24T13:30:39;25.70;99.90
15546;DHT22;7874;48.870;11.074;2023-07-24T13:33:07;26.70;99.90
15546;DHT22;7874;48.870;11.074;2023-07-24T13:35:33;27.80;99.90
15546;DHT22;7874;48.870;11.074;2023-07-24T13:38:01;28.10;99.90
15546;DHT22;7874;48.870;11.074;2023-07-24T13:40:29;28.60;99.90
15546;DHT22;7874;48.870;11.074;2023-07-24T13:42:56;29.20;99.90
15546;DHT22;7874;48.870;11.074;2023-07-24T13:45:23;29.40;99.90
15546;DHT22;7874;48.870;11.074;2023-07-24T13:47:52;29.30;99.90
15546;DHT22;7874;48.870;11.074;2023-07-24T13:50:19;28.50;99.90
15546;DHT22;7874;48.870;11.074;2023-07-24T13:52:46;27.90;99.90
15546;DHT22;7874;48.870;11.074;2023-07-24T13:55:13;27.10;99.90
15546;DHT22;7874;48.870;11.074;2023-07-24T13:57:42;26.30;99.90
15546;DHT22;7874;48.870;11.074;2023-07-24T14:00:09;26.10;99.90
15546;DHT22;7874;48.870;11.074;2023-07-24T14:02:36;26.70;99.90
15546;DHT22;7874;48.870;11.074;2023-07-24T14:05:03;26.50;99.90
15546;DHT22;7874;48.870;11.074;2023-07-24T14:07:30;26.30;99.90
15546;DHT22;7874;48.870;11.074;2023-07-24T14:09:57;26.00;99.90
15546;DHT22;7874;48.870;11.074;2023-07-24T14:12:23;26.20;99.90
15546;DHT22;7874;48.870;11.074;2023-07-24T14:14:52;25.80;99.90
15546;DHT22;7874;48.870;11.074;2023-07-24T14:17:18;25.40;99.90
15546;DHT22;7874;48.870;11.074;2023-07-24T14:19:45;25.10;99.90
15546;DHT22;7874;48.870;11.074;2023-07-24T14:22:12;24.80;99.90
15546;DHT22;7874;48.870;11.074;2023-07-24T14:24:38;24.70;99.90
15546;DHT22;7874;48.870;11.074;2023-07-24T14:27:05;25.00;99.90
15546;DHT22;7874;48.870;11.074;2023-07-24T14:29:32;25.10;99.90
15546;DHT22;7874;48.870;11.074;2023-07-24T14:32:00;25.00;99.90
15546;DHT22;7874;48.870;11.074;2023-07-24T14:34:27;24.90;99.90
15546;DHT22;7874;48.870;11.074;2023-07-24T14:36:54;24.80;99.90
15546;DHT22;7874;48.870;11.074;2023-07-24T14:39:20;24.70;99.90
15546;DHT22;7874;48.870;11.074;2023-07-24T14:41:47;24.40;99.90
15546;DHT22;7874;48.870;11.074;2023-07-24T14:44:14;24.50;99.90
15546;DHT22;7874;48.870;11.074;2023-07-24T14:46:41;24.60;99.90
15546;DHT22;7874;48.870;11.074;2023-07-24T14:49:09;24.50;99.90
15546;DHT22;7874;48.870;11.074;2023-07-24T14:51:37;24.20;99.90
15546;DHT22;7874;48.870;11.074;2023-07-24T14:54:04;23.80;99.90
15546;DHT22;7874;48.870;11.074;2023-07-24T14:56:32;23.60;99.90
15546;DHT22;7874;48.870;11.074;2023-07-24T14:58:59;23.40;99.90
15546;DHT22;7874;48.870;11.074;2023-07-24T15:01:26;23.20;99.90
15546;DHT22;7874;48.870;11.074;2023-07-24T15:03:54;23.00;99.90
15546;DHT22;7874;48.870;11.074;2023-07-24T15:06:24;22.70;99.90
15546;DHT22;7874;48.870;11.074;2023-07-24T15:08:51;22.40;99.90
15546;DHT22;7874;48.870;11.074;2023-07-24T15:11:20;22.00;99.90
15546;DHT22;7874;48.870;11.074;2023-07-24T15:13:48;21.80;99.90
15546;DHT22;7874;48.870;11.074;2023-07-24T15:16:15;21.60;99.90
15546;DHT22;7874;48.870;11.074;2023-07-24T15:18:41;21.40;99.90
15546;DHT22;7874;48.870;11.074;2023-07-24T15:21:08;21.00;99.90
15546;DHT22;7874;48.870;11.074;2023-07-24T15:23:36;20.80;99.90
15546;DHT22;7874;48.870;11.074;2023-07-24T15:26:04;20.70;99.90
15546;DHT22;7874;48.870;11.074;2023-07-24T15:28:30;20.70;99.90
15546;DHT22;7874;48.870;11.074;2023-07-24T15:30:57;20.60;99.90
15546;DHT22;7874;48.870;11.074;2023-07-24T15:33:24;20.70;99.90
15546;DHT22;7874;48.870;11.074;2023-07-24T15:35:51;20.70;99.90
15546;DHT22;7874;48.870;11.074;2023-07-24T15:38:17;20.90;99.90